YSNW/NOA METAR and TAF weather

Enter ICAO airport designator
Station Type Date Time Source
YSNW METAR 2020/03/29 14:00 UTC NOAA

YSNW 291400Z AUTO 28008KT 9999 // SCT045 SCT081 OVC105 19/18 Q1014


Station Type Date Time Source
YSNW Decoded METAR 2020/03/29 14:00 UTC NOAA

Nowra Ran Air Station, Australia (YSNW) 34-57S 150-32E 110M
Mar 29, 2020 - 10:00 AM EDT / 2020.03.29 1400 UTC
Wind: from the W (280 degrees) at 9 MPH (8 KT):0
Visibility: greater than 7 mile(s):0
Sky conditions: overcast
Temperature: 66 F (19 C)
Dew Point: 64 F (18 C)
Relative Humidity: 93%
Pressure (altimeter): 29.94 in. Hg (1014 hPa)
ob: YSNW 291400Z AUTO 28008KT 9999 // SCT045 SCT081 OVC105 19/18 Q1014
cycle: 14

Station Type Date Time Source
YSNW TAF UTC NOAA

Error!

Example: see airport list